createdAt,value
2016-10-15T00:00:32.500Z,996.99
2016-10-15T00:01:32.487Z,996.88
2016-10-15T00:02:32.471Z,996.82
2016-10-15T00:03:32.459Z,996.82
2016-10-15T00:04:32.447Z,996.78
2016-10-15T00:05:32.432Z,996.84
2016-10-15T00:06:32.418Z,996.85
2016-10-15T00:07:32.404Z,996.89
2016-10-15T00:08:32.389Z,996.89
2016-10-15T00:09:32.378Z,996.88
2016-10-15T00:10:32.363Z,996.86
2016-10-15T00:11:32.350Z,996.85
2016-10-15T00:12:32.336Z,996.93
2016-10-15T00:13:32.322Z,996.96
2016-10-15T00:14:32.310Z,996.94
2016-10-15T00:15:32.296Z,997
2016-10-15T00:16:32.281Z,996.99
2016-10-15T00:17:32.318Z,997.03
2016-10-15T00:18:32.254Z,997.1
2016-10-15T00:19:32.239Z,997.1
2016-10-15T00:20:32.230Z,997.16
2016-10-15T00:21:32.214Z,997.04
2016-10-15T00:22:32.200Z,997.05
2016-10-15T00:23:32.184Z,996.99
2016-10-15T00:24:32.171Z,996.99
2016-10-15T00:25:32.159Z,996.94
2016-10-15T00:26:32.146Z,996.99
2016-10-15T00:27:32.130Z,997.01
2016-10-15T00:28:32.119Z,997.08
2016-10-15T00:29:32.105Z,997.08
2016-10-15T00:30:32.088Z,997.03
2016-10-15T00:31:32.079Z,996.98
2016-10-15T00:32:32.062Z,996.89
2016-10-15T00:33:32.049Z,996.91
2016-10-15T00:34:32.035Z,996.92
2016-10-15T00:35:32.020Z,996.91
2016-10-15T00:36:32.006Z,996.9
2016-10-15T00:37:31.994Z,996.84
2016-10-15T00:38:31.980Z,996.83
2016-10-15T00:39:31.967Z,996.81
2016-10-15T00:40:31.952Z,996.8
2016-10-15T00:41:31.939Z,996.83
2016-10-15T00:42:31.935Z,996.82
2016-10-15T00:43:31.913Z,996.83
2016-10-15T00:44:31.901Z,996.81
2016-10-15T00:45:31.884Z,996.79
2016-10-15T00:46:31.870Z,996.8
2016-10-15T00:47:31.858Z,996.78
2016-10-15T00:48:31.845Z,996.75
2016-10-15T00:49:31.832Z,996.76
2016-10-15T00:50:31.815Z,996.81
2016-10-15T00:51:31.804Z,996.81
2016-10-15T00:52:31.788Z,996.85
2016-10-15T00:53:31.775Z,996.87
2016-10-15T00:54:31.761Z,996.88
2016-10-15T00:55:31.750Z,996.87
2016-10-15T00:56:31.733Z,996.87
2016-10-15T00:57:31.720Z,996.89
2016-10-15T00:58:31.706Z,996.87
2016-10-15T00:59:31.691Z,996.85
2016-10-15T01:00:31.678Z,996.81
2016-10-15T01:01:31.665Z,996.84
2016-10-15T01:02:31.650Z,996.83
2016-10-15T01:03:31.637Z,996.76
2016-10-15T01:04:31.622Z,996.76
2016-10-15T01:05:31.609Z,996.79
2016-10-15T01:06:31.595Z,996.75
2016-10-15T01:07:31.580Z,996.76
2016-10-15T01:08:31.567Z,996.72
2016-10-15T01:09:31.554Z,996.79
2016-10-15T01:10:31.540Z,996.83
2016-10-15T01:11:31.526Z,996.78
2016-10-15T01:12:31.512Z,996.77
2016-10-15T01:13:31.497Z,996.79
2016-10-15T01:14:31.484Z,996.75
2016-10-15T01:15:31.469Z,996.79
2016-10-15T01:16:31.457Z,996.77
2016-10-15T01:17:31.444Z,996.81
2016-10-15T01:18:31.428Z,996.8
2016-10-15T01:19:31.414Z,996.79
2016-10-15T01:20:31.401Z,996.78
2016-10-15T01:21:31.387Z,996.74
2016-10-15T01:22:31.374Z,996.76
2016-10-15T01:23:31.361Z,996.79
2016-10-15T01:24:31.347Z,996.8
2016-10-15T01:25:31.332Z,996.82
2016-10-15T01:26:31.319Z,996.78
2016-10-15T01:27:31.304Z,996.76
2016-10-15T01:28:31.291Z,996.69
2016-10-15T01:29:31.277Z,996.75
2016-10-15T01:30:31.263Z,996.7
2016-10-15T01:31:31.251Z,996.7
2016-10-15T01:32:31.235Z,996.7
2016-10-15T01:33:31.222Z,996.67
2016-10-15T01:34:31.208Z,996.72
2016-10-15T01:35:31.195Z,996.68
2016-10-15T01:36:31.180Z,996.7
2016-10-15T01:37:31.166Z,996.72
2016-10-15T01:38:31.155Z,996.69
2016-10-15T01:39:31.146Z,996.73
2016-10-15T01:40:31.127Z,996.74
2016-10-15T01:41:31.112Z,996.72
2016-10-15T01:42:31.099Z,996.73
2016-10-15T01:43:31.135Z,996.7
2016-10-15T01:44:31.071Z,996.69
2016-10-15T01:45:31.058Z,996.68
2016-10-15T01:46:31.044Z,996.71
2016-10-15T01:47:31.029Z,996.74
2016-10-15T01:48:31.016Z,996.77
2016-10-15T01:49:31.003Z,996.78
2016-10-15T01:50:30.990Z,996.78
2016-10-15T01:51:30.974Z,996.77
2016-10-15T01:52:30.962Z,996.76
2016-10-15T01:53:30.948Z,996.75
2016-10-15T01:54:30.933Z,996.72
2016-10-15T01:55:30.921Z,996.71
2016-10-15T01:56:30.908Z,996.74
2016-10-15T01:57:30.893Z,996.74
2016-10-15T01:58:30.881Z,996.75
2016-10-15T01:59:30.864Z,996.76
2016-10-15T02:00:30.852Z,996.73
2016-10-15T02:01:30.839Z,996.77
2016-10-15T02:02:30.824Z,996.81
2016-10-15T02:03:30.810Z,996.79
2016-10-15T02:04:30.797Z,996.85
2016-10-15T02:05:30.782Z,996.87
2016-10-15T02:06:30.769Z,996.85
2016-10-15T02:07:30.755Z,996.77
2016-10-15T02:08:30.741Z,996.78
2016-10-15T02:09:30.726Z,996.77
2016-10-15T02:10:30.714Z,996.75
2016-10-15T02:11:30.698Z,996.72
2016-10-15T02:12:30.684Z,996.7
2016-10-15T02:13:30.673Z,996.67
2016-10-15T02:14:30.659Z,996.69
2016-10-15T02:15:30.647Z,996.69
2016-10-15T02:16:30.630Z,996.68
2016-10-15T02:17:30.615Z,996.73
2016-10-15T02:18:30.602Z,996.73
2016-10-15T02:19:30.588Z,996.65
2016-10-15T02:20:30.574Z,996.61
2016-10-15T02:21:30.560Z,996.63
2016-10-15T02:22:30.545Z,996.6
2016-10-15T02:23:30.532Z,996.6
2016-10-15T02:24:30.519Z,996.61
2016-10-15T02:25:30.504Z,996.66
2016-10-15T02:26:30.491Z,996.63
2016-10-15T02:27:30.475Z,996.66
2016-10-15T02:28:30.461Z,996.63
2016-10-15T02:29:30.448Z,996.65
2016-10-15T02:30:30.432Z,996.71
2016-10-15T02:31:30.418Z,996.74
2016-10-15T02:32:30.404Z,996.66
2016-10-15T02:33:30.393Z,996.68
2016-10-15T02:34:30.376Z,996.67
2016-10-15T02:35:30.361Z,996.66
2016-10-15T02:36:30.349Z,996.64
2016-10-15T02:37:30.334Z,996.66
2016-10-15T02:38:30.319Z,996.65
2016-10-15T02:39:30.305Z,996.73
2016-10-15T02:40:30.290Z,996.78
2016-10-15T02:41:30.277Z,996.78
2016-10-15T02:42:30.261Z,996.75
2016-10-15T02:43:30.247Z,996.64
2016-10-15T02:44:30.234Z,996.64
2016-10-15T02:45:30.219Z,996.67
2016-10-15T02:46:30.203Z,996.68
2016-10-15T02:47:30.190Z,996.69
2016-10-15T02:48:30.179Z,996.74
2016-10-15T02:49:30.161Z,996.67
2016-10-15T02:50:30.146Z,996.68
2016-10-15T02:51:30.133Z,996.71
2016-10-15T02:52:30.119Z,996.66
2016-10-15T02:53:30.103Z,996.72
2016-10-15T02:54:30.088Z,996.65
2016-10-15T02:55:30.075Z,996.62
2016-10-15T02:56:30.060Z,996.66
2016-10-15T02:57:30.045Z,996.6
2016-10-15T02:58:30.030Z,996.66
2016-10-15T02:59:30.016Z,996.67
2016-10-15T03:00:30.003Z,996.61
2016-10-15T03:01:29.988Z,996.56
2016-10-15T03:02:29.974Z,996.52
2016-10-15T03:03:29.959Z,996.61
2016-10-15T03:04:29.944Z,996.61
2016-10-15T03:05:29.930Z,996.59
2016-10-15T03:06:29.914Z,996.64
2016-10-15T03:07:29.901Z,996.59
2016-10-15T03:08:29.884Z,996.6
2016-10-15T03:09:29.871Z,996.58
2016-10-15T03:10:29.858Z,996.6
2016-10-15T03:11:29.840Z,996.59
2016-10-15T03:12:29.827Z,996.6
2016-10-15T03:13:29.814Z,996.59
2016-10-15T03:14:30.002Z,996.59
2016-10-15T03:15:29.783Z,996.61
2016-10-15T03:16:29.770Z,996.62
2016-10-15T03:17:29.755Z,996.66
2016-10-15T03:18:29.738Z,996.7
2016-10-15T03:19:29.725Z,996.71
2016-10-15T03:20:29.710Z,996.73
2016-10-15T03:21:29.696Z,996.74
2016-10-15T03:22:29.682Z,996.75
2016-10-15T03:23:29.666Z,996.73
2016-10-15T03:24:29.651Z,996.74
2016-10-15T03:25:29.637Z,996.73
2016-10-15T03:26:29.623Z,996.73
2016-10-15T03:27:29.606Z,996.72
2016-10-15T03:28:29.592Z,996.72
2016-10-15T03:29:29.576Z,996.72
2016-10-15T03:30:29.563Z,996.78
2016-10-15T03:31:29.551Z,996.78
2016-10-15T03:32:29.533Z,996.79
2016-10-15T03:33:29.553Z,996.78
2016-10-15T03:34:29.503Z,996.81
2016-10-15T03:35:29.488Z,996.79
2016-10-15T03:36:29.474Z,996.82
2016-10-15T03:37:29.459Z,996.8
2016-10-15T03:38:29.443Z,996.8
2016-10-15T03:39:29.430Z,996.81
2016-10-15T03:40:29.413Z,996.83
2016-10-15T03:41:29.399Z,996.83
2016-10-15T03:42:29.385Z,996.85
2016-10-15T03:43:29.370Z,996.85
2016-10-15T03:44:29.356Z,996.84
2016-10-15T03:45:29.341Z,996.9
2016-10-15T03:46:29.325Z,996.89
2016-10-15T03:47:29.309Z,996.89
2016-10-15T03:48:29.298Z,996.88
2016-10-15T03:49:29.283Z,996.88
2016-10-15T03:50:29.266Z,996.9
2016-10-15T03:51:29.249Z,996.88
2016-10-15T03:52:29.236Z,996.92
2016-10-15T03:53:29.221Z,996.94
2016-10-15T03:54:29.206Z,997.01
2016-10-15T03:55:29.191Z,996.95
2016-10-15T03:56:29.174Z,996.96
2016-10-15T03:57:29.161Z,996.96
2016-10-15T03:58:29.145Z,996.95
2016-10-15T03:59:29.129Z,996.99
2016-10-15T04:00:29.117Z,996.98
2016-10-15T04:01:29.101Z,996.99
2016-10-15T04:02:29.085Z,996.95
2016-10-15T04:03:29.070Z,996.96
2016-10-15T04:04:29.054Z,996.98
2016-10-15T04:05:29.042Z,996.96
2016-10-15T04:06:29.025Z,996.96
2016-10-15T04:07:29.010Z,996.99
2016-10-15T04:08:28.996Z,997.01
2016-10-15T04:09:28.980Z,997.02
2016-10-15T04:10:28.964Z,997.02
2016-10-15T04:11:28.949Z,997.05
2016-10-15T04:12:28.935Z,997.04
2016-10-15T04:13:28.921Z,997.05
2016-10-15T04:14:28.905Z,997.09
2016-10-15T04:15:28.890Z,997.09
2016-10-15T04:16:28.874Z,997.09
2016-10-15T04:17:28.860Z,997.13
2016-10-15T04:18:28.845Z,997.1
2016-10-15T04:19:28.830Z,997.1
2016-10-15T04:20:28.814Z,997.12
2016-10-15T04:21:28.800Z,997.11
2016-10-15T04:22:28.785Z,997.16
2016-10-15T04:23:28.772Z,997.19
2016-10-15T04:24:28.755Z,997.17
2016-10-15T04:25:28.742Z,997.2
2016-10-15T04:26:28.727Z,997.16
2016-10-15T04:27:28.713Z,997.18
2016-10-15T04:28:28.697Z,997.23
2016-10-15T04:29:28.681Z,997.22
2016-10-15T04:30:28.666Z,997.22
2016-10-15T04:31:28.654Z,997.22
2016-10-15T04:32:28.637Z,997.22
2016-10-15T04:33:28.623Z,997.26
2016-10-15T04:34:28.608Z,997.23
2016-10-15T04:35:28.593Z,997.23
2016-10-15T04:36:28.580Z,997.23
2016-10-15T04:37:28.564Z,997.2
2016-10-15T04:38:28.550Z,997.2
2016-10-15T04:39:28.534Z,997.21
2016-10-15T04:40:28.521Z,997.23
2016-10-15T04:41:28.505Z,997.22
2016-10-15T04:42:28.490Z,997.2
2016-10-15T04:43:28.476Z,997.19
2016-10-15T04:44:28.462Z,997.25
2016-10-15T04:45:28.449Z,997.27
2016-10-15T04:46:28.432Z,997.28
2016-10-15T04:47:28.418Z,997.37
2016-10-15T04:48:28.404Z,997.37
2016-10-15T04:49:28.390Z,997.46
2016-10-15T04:50:28.374Z,997.45
2016-10-15T04:51:28.361Z,997.48
2016-10-15T04:52:28.346Z,997.49
2016-10-15T04:53:28.329Z,997.51
2016-10-15T04:54:28.315Z,997.48
2016-10-15T04:55:28.300Z,997.51
2016-10-15T04:56:28.337Z,997.54
2016-10-15T04:57:28.269Z,997.55
2016-10-15T04:58:28.255Z,997.58
2016-10-15T04:59:28.241Z,997.58
2016-10-15T05:00:28.226Z,997.57
2016-10-15T05:01:28.211Z,997.57
2016-10-15T05:02:28.197Z,997.58
2016-10-15T05:03:28.181Z,997.53
2016-10-15T05:04:28.169Z,997.51
2016-10-15T05:05:28.152Z,997.48
2016-10-15T05:06:28.136Z,997.52
2016-10-15T05:07:28.123Z,997.48
2016-10-15T05:08:28.108Z,997.5
2016-10-15T05:09:28.092Z,997.55
2016-10-15T05:10:28.080Z,997.58
2016-10-15T05:11:28.063Z,997.62
2016-10-15T05:12:28.047Z,997.64
2016-10-15T05:13:28.031Z,997.65
2016-10-15T05:14:28.235Z,997.63
2016-10-15T05:15:28.005Z,997.65
2016-10-15T05:16:27.991Z,997.67
2016-10-15T05:17:27.974Z,997.65
2016-10-15T05:18:27.959Z,997.65
2016-10-15T05:19:27.945Z,997.65
2016-10-15T05:20:27.927Z,997.64
2016-10-15T05:21:27.914Z,997.63
2016-10-15T05:22:27.902Z,997.66
2016-10-15T05:23:27.885Z,997.68
2016-10-15T05:24:27.873Z,997.68
2016-10-15T05:25:27.857Z,997.66
2016-10-15T05:26:27.849Z,997.65
2016-10-15T05:27:27.825Z,997.7
2016-10-15T05:28:27.809Z,997.67
2016-10-15T05:29:27.795Z,997.69
2016-10-15T05:30:27.780Z,997.65
2016-10-15T05:31:27.766Z,997.63
2016-10-15T05:32:27.765Z,997.62
2016-10-15T05:33:27.735Z,997.66
2016-10-15T05:34:27.724Z,997.63
2016-10-15T05:35:27.705Z,997.64
2016-10-15T05:36:27.695Z,997.63
2016-10-15T05:37:27.676Z,997.62
2016-10-15T05:38:27.663Z,997.7
2016-10-15T05:39:27.651Z,997.67
2016-10-15T05:40:27.634Z,997.69
2016-10-15T05:41:27.617Z,997.71
2016-10-15T05:42:27.606Z,997.73
2016-10-15T05:43:27.590Z,997.72
2016-10-15T05:44:27.574Z,997.72
2016-10-15T05:45:27.585Z,997.76
2016-10-15T05:46:27.545Z,997.75
2016-10-15T05:47:27.531Z,997.74
2016-10-15T05:48:27.517Z,997.74
2016-10-15T05:49:27.588Z,997.73
2016-10-15T05:50:27.488Z,997.72
2016-10-15T05:51:27.473Z,997.73
2016-10-15T05:52:27.460Z,997.71
2016-10-15T05:53:27.446Z,997.74
2016-10-15T05:54:27.431Z,997.78
2016-10-15T05:55:27.417Z,997.78
2016-10-15T05:56:27.401Z,997.8
2016-10-15T05:57:27.387Z,997.81
2016-10-15T05:58:27.373Z,997.9
2016-10-15T05:59:27.358Z,997.88
2016-10-15T06:00:27.344Z,997.88
2016-10-15T06:01:27.329Z,997.91
2016-10-15T06:02:27.314Z,997.94
2016-10-15T06:03:27.299Z,997.98
2016-10-15T06:04:27.288Z,997.97
2016-10-15T06:05:27.273Z,998
2016-10-15T06:06:27.260Z,998.04
2016-10-15T06:07:27.246Z,998.03
2016-10-15T06:08:27.230Z,998.04
2016-10-15T06:09:27.216Z,998.05
2016-10-15T06:10:27.200Z,998.04
2016-10-15T06:11:27.187Z,998.08
2016-10-15T06:12:27.173Z,998.14
2016-10-15T06:13:27.160Z,998.1
2016-10-15T06:14:27.147Z,998.14
2016-10-15T06:15:27.131Z,998.15
2016-10-15T06:16:27.116Z,998.18
2016-10-15T06:17:27.104Z,998.23
2016-10-15T06:18:27.094Z,998.27
2016-10-15T06:19:27.077Z,998.31
2016-10-15T06:20:27.066Z,998.35
2016-10-15T06:21:27.048Z,998.35
2016-10-15T06:22:27.034Z,998.37
2016-10-15T06:23:27.019Z,998.38
2016-10-15T06:24:27.004Z,998.39
2016-10-15T06:25:26.990Z,998.43
2016-10-15T06:26:26.978Z,998.41
2016-10-15T06:27:26.963Z,998.44
2016-10-15T06:28:26.947Z,998.45
2016-10-15T06:29:26.934Z,998.5
2016-10-15T06:30:26.923Z,998.43
2016-10-15T06:31:26.906Z,998.48
2016-10-15T06:32:26.892Z,998.53
2016-10-15T06:33:26.878Z,998.52
2016-10-15T06:34:26.866Z,998.55
2016-10-15T06:35:26.850Z,998.57
2016-10-15T06:36:26.837Z,998.59
2016-10-15T06:37:26.823Z,998.6
2016-10-15T06:38:26.810Z,998.61
2016-10-15T06:39:26.795Z,998.63
2016-10-15T06:40:26.781Z,998.66
2016-10-15T06:41:26.770Z,998.68
2016-10-15T06:42:26.759Z,998.72
2016-10-15T06:43:26.741Z,998.72
2016-10-15T06:44:26.726Z,998.73
2016-10-15T06:45:26.713Z,998.76
2016-10-15T06:46:26.699Z,998.78
2016-10-15T06:47:26.686Z,998.84
2016-10-15T06:48:26.671Z,998.88
2016-10-15T06:49:26.657Z,998.88
2016-10-15T06:50:26.642Z,998.92
2016-10-15T06:51:26.629Z,998.94
2016-10-15T06:52:26.616Z,998.95
2016-10-15T06:53:26.601Z,998.97
2016-10-15T06:54:26.603Z,998.95
2016-10-15T06:55:26.776Z,998.98
2016-10-15T06:56:26.561Z,999
2016-10-15T06:57:26.548Z,999.01
2016-10-15T06:58:26.534Z,998.99
2016-10-15T06:59:26.529Z,999
2016-10-15T07:00:26.508Z,999.04
2016-10-15T07:01:26.493Z,999.04
2016-10-15T07:02:26.480Z,999.08
2016-10-15T07:03:26.467Z,999.1
2016-10-15T07:04:26.453Z,999.15
2016-10-15T07:05:26.445Z,999.17
2016-10-15T07:06:26.425Z,999.18
2016-10-15T07:07:26.413Z,999.13
2016-10-15T07:08:26.399Z,999.19
2016-10-15T07:09:26.389Z,999.18
2016-10-15T07:10:26.372Z,999.23
2016-10-15T07:11:26.359Z,999.2
2016-10-15T07:12:26.345Z,999.26
2016-10-15T07:13:26.381Z,999.28
2016-10-15T07:14:26.521Z,999.3
2016-10-15T07:15:26.306Z,999.36
2016-10-15T07:16:26.291Z,999.31
2016-10-15T07:17:26.278Z,999.28
2016-10-15T07:18:26.265Z,999.27
2016-10-15T07:19:26.253Z,999.3
2016-10-15T07:20:26.240Z,999.35
2016-10-15T07:21:26.227Z,999.33
2016-10-15T07:22:26.213Z,999.37
2016-10-15T07:23:26.197Z,999.37
2016-10-15T07:24:26.185Z,999.42
2016-10-15T07:25:26.172Z,999.43
2016-10-15T07:26:26.158Z,999.45
2016-10-15T07:27:26.144Z,999.45
2016-10-15T07:28:26.131Z,999.44
2016-10-15T07:29:26.117Z,999.47
2016-10-15T07:30:26.103Z,999.47
2016-10-15T07:31:26.092Z,999.47
2016-10-15T07:32:26.078Z,999.5
2016-10-15T07:33:26.068Z,999.54
2016-10-15T07:34:26.055Z,999.56
2016-10-15T07:35:26.037Z,999.61
2016-10-15T07:36:26.024Z,999.58
2016-10-15T07:37:26.011Z,999.59
2016-10-15T07:38:25.998Z,999.58
2016-10-15T07:39:25.985Z,999.6
2016-10-15T07:40:25.972Z,999.61
2016-10-15T07:42:25.945Z,999.6
2016-10-15T07:43:25.931Z,999.64
2016-10-15T07:44:25.918Z,999.62
2016-10-15T07:45:25.903Z,999.68
2016-10-15T07:46:25.890Z,999.68
2016-10-15T07:47:25.878Z,999.73
2016-10-15T07:48:25.866Z,999.72
2016-10-15T07:49:25.854Z,999.73
2016-10-15T07:50:25.838Z,999.78
2016-10-15T07:51:25.827Z,999.77
2016-10-15T07:52:25.809Z,999.82
2016-10-15T07:53:25.799Z,999.8
2016-10-15T07:54:25.784Z,999.85
2016-10-15T07:55:25.771Z,999.85
2016-10-15T07:56:25.757Z,999.89
2016-10-15T07:57:25.744Z,999.87
2016-10-15T07:58:25.732Z,999.93
2016-10-15T07:59:25.720Z,999.96
2016-10-15T08:00:25.709Z,1000
2016-10-15T08:01:25.692Z,1000.02
2016-10-15T08:02:25.679Z,999.99
2016-10-15T08:03:25.669Z,1000.08
2016-10-15T08:04:25.653Z,1000.09
2016-10-15T08:05:25.643Z,1000.08
2016-10-15T08:06:25.628Z,1000.09
2016-10-15T08:07:25.617Z,1000.13
2016-10-15T08:08:25.600Z,1000.13
2016-10-15T08:09:25.590Z,1000.13
2016-10-15T08:10:25.576Z,1000.17
2016-10-15T08:11:25.562Z,1000.21
2016-10-15T08:12:25.550Z,1000.25
2016-10-15T08:13:25.538Z,1000.25
2016-10-15T08:14:25.526Z,1000.25
2016-10-15T08:15:25.512Z,1000.26
2016-10-15T08:16:25.501Z,1000.28
2016-10-15T08:17:25.493Z,1000.29
2016-10-15T08:18:25.474Z,1000.33
2016-10-15T08:19:25.461Z,1000.38
2016-10-15T08:20:25.450Z,1000.43
2016-10-15T08:21:25.437Z,1000.44
2016-10-15T08:22:25.422Z,1000.44
2016-10-15T08:23:25.410Z,1000.47
2016-10-15T08:24:25.398Z,1000.48
2016-10-15T08:25:25.383Z,1000.52
2016-10-15T08:26:25.372Z,1000.55
2016-10-15T08:27:25.360Z,1000.52
2016-10-15T08:28:25.347Z,1000.55
2016-10-15T08:29:25.338Z,1000.56
2016-10-15T08:30:25.323Z,1000.62
2016-10-15T08:31:25.310Z,1000.63
2016-10-15T08:32:25.298Z,1000.65
2016-10-15T08:33:25.284Z,1000.64
2016-10-15T08:34:25.271Z,1000.71
2016-10-15T08:35:25.258Z,1000.77
2016-10-15T08:36:25.247Z,1000.72
2016-10-15T08:37:25.232Z,1000.79
2016-10-15T08:38:25.219Z,1000.8
2016-10-15T08:39:25.208Z,1000.81
2016-10-15T08:40:25.202Z,1000.84
2016-10-15T08:41:25.187Z,1000.83
2016-10-15T08:42:25.169Z,1000.82
2016-10-15T08:43:25.161Z,1000.87
2016-10-15T08:44:25.151Z,1000.88
2016-10-15T08:45:25.128Z,1000.92
2016-10-15T08:46:25.116Z,1000.87
2016-10-15T08:47:25.102Z,1000.91
2016-10-15T08:48:25.092Z,1000.97
2016-10-15T08:49:25.129Z,1000.98
2016-10-15T08:50:25.070Z,1001.01
2016-10-15T08:51:25.053Z,1000.99
2016-10-15T08:52:25.040Z,1001.06
2016-10-15T08:53:25.029Z,1001.07
2016-10-15T08:54:25.015Z,1001.06
2016-10-15T08:55:25.004Z,1001.08
2016-10-15T08:56:24.999Z,1001.09
2016-10-15T08:57:24.976Z,1001.11
2016-10-15T08:58:24.992Z,1001.14
2016-10-15T08:59:24.952Z,1001.16
2016-10-15T09:00:24.946Z,1001.17
2016-10-15T09:01:24.933Z,1001.17
2016-10-15T09:02:24.920Z,1001.21
2016-10-15T09:03:24.911Z,1001.23
2016-10-15T09:04:24.890Z,1001.21
2016-10-15T09:05:24.880Z,1001.28
2016-10-15T09:06:24.865Z,1001.27
2016-10-15T09:07:24.853Z,1001.24
2016-10-15T09:08:24.841Z,1001.25
2016-10-15T09:09:24.830Z,1001.29
2016-10-15T09:10:24.816Z,1001.26
2016-10-15T09:11:24.804Z,1001.3
2016-10-15T09:12:24.793Z,1001.3
2016-10-15T09:13:24.778Z,1001.27
2016-10-15T09:14:24.969Z,1001.31
2016-10-15T09:15:24.754Z,1001.31
2016-10-15T09:16:24.742Z,1001.34
2016-10-15T09:17:24.781Z,1001.33
2016-10-15T09:18:24.719Z,1001.37
2016-10-15T09:19:24.705Z,1001.43
2016-10-15T09:20:24.694Z,1001.4
2016-10-15T09:21:24.681Z,1001.42
2016-10-15T09:22:24.670Z,1001.46
2016-10-15T09:23:24.660Z,1001.48
2016-10-15T09:24:24.656Z,1001.52
2016-10-15T09:25:24.634Z,1001.52
2016-10-15T09:26:24.836Z,1001.52
2016-10-15T09:27:24.627Z,1001.55
2016-10-15T09:28:24.640Z,1001.54
2016-10-15T09:29:24.588Z,1001.52
2016-10-15T09:30:24.639Z,1001.55
2016-10-15T09:31:24.588Z,1001.59
2016-10-15T09:32:24.552Z,1001.6
2016-10-15T09:33:24.537Z,1001.69
2016-10-15T09:34:24.530Z,1001.66
2016-10-15T09:35:24.518Z,1001.65
2016-10-15T09:36:24.504Z,1001.62
2016-10-15T09:37:24.500Z,1001.66
2016-10-15T09:38:24.485Z,1001.73
2016-10-15T09:39:24.473Z,1001.75
2016-10-15T09:40:24.455Z,1001.77
2016-10-15T09:41:24.449Z,1001.77
2016-10-15T09:42:24.648Z,1001.79
2016-10-15T09:43:24.420Z,1001.8
2016-10-15T09:44:24.456Z,1001.81
2016-10-15T09:45:24.422Z,1001.84
2016-10-15T09:46:24.406Z,1001.85
2016-10-15T09:47:24.381Z,1001.9
2016-10-15T09:48:24.396Z,1001.83
2016-10-15T09:49:24.342Z,1001.9
2016-10-15T09:50:24.380Z,1001.89
2016-10-15T09:51:24.318Z,1001.97
2016-10-15T09:52:24.312Z,1001.97
2016-10-15T09:53:24.300Z,1001.94
2016-10-15T09:54:24.282Z,1001.97
2016-10-15T09:55:24.320Z,1002
2016-10-15T09:56:24.257Z,1002
2016-10-15T09:57:24.245Z,1002
2016-10-15T09:58:24.232Z,1002.01
2016-10-15T09:59:24.220Z,1002.04
2016-10-15T10:00:24.259Z,1002.09
2016-10-15T10:01:24.196Z,1002.14
2016-10-15T10:02:24.184Z,1002.07
2016-10-15T10:03:24.173Z,1002.15
2016-10-15T10:04:24.161Z,1002.19
2016-10-15T10:05:24.168Z,1002.15
2016-10-15T10:06:24.136Z,1002.12
2016-10-15T10:07:24.124Z,1002.19
2016-10-15T10:08:24.112Z,1002.14
2016-10-15T10:09:24.100Z,1002.24
2016-10-15T10:10:24.088Z,1002.17
2016-10-15T10:11:24.076Z,1002.26
2016-10-15T10:12:24.064Z,1002.28
2016-10-15T10:13:24.051Z,1002.28
2016-10-15T10:14:24.040Z,1002.28
2016-10-15T10:15:24.028Z,1002.31
2016-10-15T10:16:24.015Z,1002.35
2016-10-15T10:17:24.004Z,1002.36
2016-10-15T10:18:23.990Z,1002.32
2016-10-15T10:19:23.979Z,1002.36
2016-10-15T10:20:23.966Z,1002.37
2016-10-15T10:21:23.954Z,1002.38
2016-10-15T10:22:23.942Z,1002.42
2016-10-15T10:23:23.931Z,1002.44
2016-10-15T10:24:23.917Z,1002.41
2016-10-15T10:25:23.909Z,1002.47
2016-10-15T10:26:23.895Z,1002.48
2016-10-15T10:27:23.883Z,1002.63
2016-10-15T10:28:23.871Z,1002.5
2016-10-15T10:29:23.856Z,1002.57
2016-10-15T10:30:23.845Z,1002.55
2016-10-15T10:31:23.839Z,1002.58
2016-10-15T10:32:23.827Z,1002.67
2016-10-15T10:33:23.811Z,1002.63
2016-10-15T10:34:23.803Z,1002.68
2016-10-15T10:35:23.786Z,1002.68
2016-10-15T10:36:23.777Z,1002.71
2016-10-15T10:37:23.760Z,1002.76
2016-10-15T10:38:23.753Z,1002.74
2016-10-15T10:39:23.737Z,1002.76
2016-10-15T10:40:23.728Z,1002.78
2016-10-15T10:41:23.716Z,1002.84
2016-10-15T10:42:23.704Z,1002.79
2016-10-15T10:43:23.687Z,1002.83
2016-10-15T10:44:23.676Z,1002.88
2016-10-15T10:45:23.664Z,1002.9
2016-10-15T10:46:23.650Z,1002.91
2016-10-15T10:47:23.645Z,1002.94
2016-10-15T10:48:23.627Z,1002.95
2016-10-15T10:49:23.613Z,1002.95
2016-10-15T10:50:23.602Z,1002.97
2016-10-15T10:51:23.595Z,1003.04
2016-10-15T10:52:23.583Z,1002.98
2016-10-15T10:53:23.564Z,1003.05
2016-10-15T10:54:23.550Z,1003.05
2016-10-15T10:55:23.542Z,1003.11
2016-10-15T10:56:23.534Z,1003.13
2016-10-15T10:57:23.517Z,1003.14
2016-10-15T10:58:23.500Z,1003.21
2016-10-15T10:59:23.504Z,1003.2
2016-10-15T11:00:23.476Z,1003.26
2016-10-15T11:01:23.468Z,1003.33
2016-10-15T11:02:23.450Z,1003.29
2016-10-15T11:03:23.450Z,1003.28
2016-10-15T11:04:23.428Z,1003.36
2016-10-15T11:05:23.416Z,1003.37
2016-10-15T11:06:23.398Z,1003.44
2016-10-15T11:07:23.387Z,1003.45
2016-10-15T11:08:23.375Z,1003.44
2016-10-15T11:09:23.366Z,1003.49
2016-10-15T11:10:23.350Z,1003.51
2016-10-15T11:11:23.336Z,1003.53
2016-10-15T11:12:23.325Z,1003.58
2016-10-15T11:13:23.314Z,1003.55
2016-10-15T11:14:23.501Z,1003.64
2016-10-15T11:15:23.282Z,1003.62
2016-10-15T11:16:23.284Z,1003.64
2016-10-15T11:17:23.257Z,1003.67
2016-10-15T11:18:23.246Z,1003.66
2016-10-15T11:19:23.234Z,1003.66
2016-10-15T11:20:23.219Z,1003.68
2016-10-15T11:21:23.460Z,1003.66
2016-10-15T11:22:23.196Z,1003.71
2016-10-15T11:23:23.187Z,1003.67
2016-10-15T11:24:23.175Z,1003.71
2016-10-15T11:25:23.158Z,1003.7
2016-10-15T11:26:23.150Z,1003.7
2016-10-15T11:27:23.137Z,1003.7
2016-10-15T11:28:23.125Z,1003.74
2016-10-15T11:29:23.103Z,1003.69
2016-10-15T11:30:23.097Z,1003.72
2016-10-15T11:31:23.084Z,1003.7
2016-10-15T11:32:23.065Z,1003.74
2016-10-15T11:33:23.054Z,1003.73
2016-10-15T11:34:23.041Z,1003.74
2016-10-15T11:35:23.025Z,1003.75
2016-10-15T11:36:23.013Z,1003.79
2016-10-15T11:37:23.002Z,1003.82
2016-10-15T11:38:22.993Z,1003.8
2016-10-15T11:39:22.974Z,1003.88
2016-10-15T11:40:22.962Z,1003.85
2016-10-15T11:41:22.948Z,1003.89
2016-10-15T11:42:22.939Z,1003.88
2016-10-15T11:43:22.926Z,1003.9
2016-10-15T11:44:22.915Z,1003.87
2016-10-15T11:45:22.902Z,1003.9
2016-10-15T11:46:22.885Z,1003.87
2016-10-15T11:47:22.873Z,1003.9
2016-10-15T11:48:22.865Z,1003.95
2016-10-15T11:49:22.853Z,1003.94
2016-10-15T11:50:22.834Z,1003.94
2016-10-15T11:51:22.824Z,1003.95
2016-10-15T11:52:22.808Z,1003.94
2016-10-15T11:53:22.793Z,1004.01
2016-10-15T11:54:22.792Z,1004
2016-10-15T11:55:22.768Z,1003.97
2016-10-15T11:56:22.764Z,1004.04
2016-10-15T11:57:22.740Z,1004.02
2016-10-15T11:58:22.736Z,1003.99
2016-10-15T11:59:22.918Z,1004.04
2016-10-15T12:00:22.701Z,1004.02
2016-10-15T12:01:22.697Z,1004.08
2016-10-15T12:02:22.682Z,1004.03
2016-10-15T12:03:22.665Z,1004.07
2016-10-15T12:04:22.646Z,1004.07
2016-10-15T12:05:22.633Z,1004.08
2016-10-15T12:06:22.668Z,1004.1
2016-10-15T12:07:22.612Z,1004.09
2016-10-15T12:08:22.598Z,1004.11
2016-10-15T12:09:22.581Z,1004.13
2016-10-15T12:10:22.575Z,1004.15
2016-10-15T12:11:22.556Z,1004.15
2016-10-15T12:12:22.541Z,1004.18
2016-10-15T12:13:22.527Z,1004.17
2016-10-15T12:14:22.520Z,1004.14
2016-10-15T12:15:22.507Z,1004.13
2016-10-15T12:16:22.547Z,1004.17
2016-10-15T12:17:22.476Z,1004.18
2016-10-15T12:18:22.467Z,1004.22
2016-10-15T12:19:22.455Z,1004.18
2016-10-15T12:20:22.442Z,1004.21
2016-10-15T12:21:22.428Z,1004.19
2016-10-15T12:22:22.416Z,1004.22
2016-10-15T12:23:22.407Z,1004.23
2016-10-15T12:24:22.387Z,1004.27